sensor_id;sensor_type;location;lat;lon;timestamp;pressure;altitude;pressure_sealevel;temperature;humidity
55990;BME280;41875;55.806;38.082;2023-06-10T00:00:13;99801.94;;;12.40;52.44
55990;BME280;41875;55.806;38.082;2023-06-10T00:02:43;99794.78;;;12.48;52.22
55990;BME280;41875;55.806;38.082;2023-06-10T00:05:11;99791.84;;;12.60;51.48
55990;BME280;41875;55.806;38.082;2023-06-10T00:07:40;99788.16;;;12.53;52.14
55990;BME280;41875;55.806;38.082;2023-06-10T00:10:08;99781.88;;;12.62;51.38
55990;BME280;41875;55.806;38.082;2023-06-10T00:12:37;99793.13;;;12.39;52.27
55990;BME280;41875;55.806;38.082;2023-06-10T00:15:09;99788.78;;;12.13;53.08
55990;BME280;41875;55.806;38.082;2023-06-10T00:17:39;99797.56;;;12.14;53.27
55990;BME280;41875;55.806;38.082;2023-06-10T00:20:08;99802.09;;;12.38;52.39
55990;BME280;41875;55.806;38.082;2023-06-10T00:22:39;99795.56;;;12.16;53.30
55990;BME280;41875;55.806;38.082;2023-06-10T00:25:09;99800.53;;;12.02;53.72
55990;BME280;41875;55.806;38.082;2023-06-10T00:27:39;99808.59;;;11.93;53.88
55990;BME280;41875;55.806;38.082;2023-06-10T00:30:10;99805.50;;;12.06;53.63
55990;BME280;41875;55.806;38.082;2023-06-10T00:32:39;99813.22;;;11.90;54.18
55990;BME280;41875;55.806;38.082;2023-06-10T00:35:10;99807.97;;;11.99;53.66
55990;BME280;41875;55.806;38.082;2023-06-10T00:37:39;99813.53;;;11.87;54.20
55990;BME280;41875;55.806;38.082;2023-06-10T00:40:08;99812.19;;;12.10;53.24
55990;BME280;41875;55.806;38.082;2023-06-10T00:42:36;99810.34;;;12.10;53.31
55990;BME280;41875;55.806;38.082;2023-06-10T00:45:06;99816.66;;;11.83;54.28
55990;BME280;41875;55.806;38.082;2023-06-10T00:47:38;99820.19;;;11.92;54.23
55990;BME280;41875;55.806;38.082;2023-06-10T00:50:08;99806.09;;;11.91;54.31
55990;BME280;41875;55.806;38.082;2023-06-10T00:52:36;99802.22;;;12.28;53.15
55990;BME280;41875;55.806;38.082;2023-06-10T00:55:06;99812.00;;;12.19;53.53
55990;BME280;41875;55.806;38.082;2023-06-10T00:57:36;99812.22;;;12.43;52.80
55990;BME280;41875;55.806;38.082;2023-06-10T01:00:07;99806.25;;;12.57;52.54
55990;BME280;41875;55.806;38.082;2023-06-10T01:02:39;99813.38;;;12.40;52.87
55990;BME280;41875;55.806;38.082;2023-06-10T01:05:08;99816.56;;;12.52;52.65
55990;BME280;41875;55.806;38.082;2023-06-10T01:07:44;99808.44;;;12.78;51.69
55990;BME280;41875;55.806;38.082;2023-06-10T01:10:20;99817.06;;;12.80;51.64
55990;BME280;41875;55.806;38.082;2023-06-10T01:12:55;99816.03;;;13.31;50.44
55990;BME280;41875;55.806;38.082;2023-06-10T01:15:23;99819.69;;;13.47;49.98
55990;BME280;41875;55.806;38.082;2023-06-10T01:17:57;99823.34;;;13.37;50.05
55990;BME280;41875;55.806;38.082;2023-06-10T01:20:27;99835.31;;;13.33;50.44
55990;BME280;41875;55.806;38.082;2023-06-10T01:22:59;99832.25;;;13.78;49.38
55990;BME280;41875;55.806;38.082;2023-06-10T01:25:28;99829.59;;;14.09;48.27
55990;BME280;41875;55.806;38.082;2023-06-10T01:28:04;99836.38;;;14.75;46.75
55990;BME280;41875;55.806;38.082;2023-06-10T01:30:41;99837.41;;;15.12;45.71
55990;BME280;41875;55.806;38.082;2023-06-10T01:33:14;99842.16;;;15.25;45.43
55990;BME280;41875;55.806;38.082;2023-06-10T01:35:47;99847.34;;;15.03;45.82
55990;BME280;41875;55.806;38.082;2023-06-10T01:38:19;99846.84;;;15.38;45.18
55990;BME280;41875;55.806;38.082;2023-06-10T01:40:49;99858.72;;;15.50;44.45
55990;BME280;41875;55.806;38.082;2023-06-10T01:43:20;99855.72;;;15.98;43.65
55990;BME280;41875;55.806;38.082;2023-06-10T01:45:49;99869.13;;;16.20;42.85
55990;BME280;41875;55.806;38.082;2023-06-10T01:48:18;99871.44;;;17.25;41.00
55990;BME280;41875;55.806;38.082;2023-06-10T01:50:47;99882.38;;;17.59;39.88
55990;BME280;41875;55.806;38.082;2023-06-10T01:53:17;99887.13;;;16.85;41.07
55990;BME280;41875;55.806;38.082;2023-06-10T01:55:46;99891.53;;;16.34;42.11
55990;BME280;41875;55.806;38.082;2023-06-10T01:58:16;99894.09;;;17.51;39.73
55990;BME280;41875;55.806;38.082;2023-06-10T02:00:45;99884.66;;;17.90;38.54
55990;BME280;41875;55.806;38.082;2023-06-10T02:03:13;99882.50;;;17.15;40.07
55990;BME280;41875;55.806;38.082;2023-06-10T02:05:42;99896.25;;;17.12;40.21
55990;BME280;41875;55.806;38.082;2023-06-10T02:08:17;99892.56;;;17.98;38.74
55990;BME280;41875;55.806;38.082;2023-06-10T02:10:46;99897.97;;;18.12;38.52
55990;BME280;41875;55.806;38.082;2023-06-10T02:13:15;99900.88;;;18.79;36.83
55990;BME280;41875;55.806;38.082;2023-06-10T02:15:43;99898.25;;;21.10;33.78
55990;BME280;41875;55.806;38.082;2023-06-10T02:18:12;99905.00;;;20.03;34.63
55990;BME280;41875;55.806;38.082;2023-06-10T02:20:42;99907.88;;;20.99;32.84
55990;BME280;41875;55.806;38.082;2023-06-10T02:23:11;99906.53;;;20.76;32.90
55990;BME280;41875;55.806;38.082;2023-06-10T02:25:41;99919.00;;;16.28;41.52
55990;BME280;41875;55.806;38.082;2023-06-10T02:28:10;99922.19;;;18.94;36.38
55990;BME280;41875;55.806;38.082;2023-06-10T02:30:39;99911.81;;;19.99;34.40
55990;BME280;41875;55.806;38.082;2023-06-10T02:33:08;99917.88;;;19.60;35.18
55990;BME280;41875;55.806;38.082;2023-06-10T02:35:39;99915.50;;;17.79;38.43
55990;BME280;41875;55.806;38.082;2023-06-10T02:38:07;99916.56;;;17.85;38.33
55990;BME280;41875;55.806;38.082;2023-06-10T02:40:36;99920.13;;;18.27;36.85
55990;BME280;41875;55.806;38.082;2023-06-10T02:43:06;99920.16;;;19.70;34.86
55990;BME280;41875;55.806;38.082;2023-06-10T02:45:35;99932.22;;;20.33;33.10
55990;BME280;41875;55.806;38.082;2023-06-10T02:48:09;99924.06;;;19.54;34.33
55990;BME280;41875;55.806;38.082;2023-06-10T02:50:39;99941.94;;;18.73;36.11
55990;BME280;41875;55.806;38.082;2023-06-10T02:53:16;99936.28;;;20.49;33.15
55990;BME280;41875;55.806;38.082;2023-06-10T02:55:51;99933.41;;;19.45;34.48
55990;BME280;41875;55.806;38.082;2023-06-10T02:58:22;99942.69;;;20.94;32.16
55990;BME280;41875;55.806;38.082;2023-06-10T03:00:51;99947.81;;;20.63;32.98
55990;BME280;41875;55.806;38.082;2023-06-10T03:03:20;99932.22;;;22.05;30.98
55990;BME280;41875;55.806;38.082;2023-06-10T03:06:00;99938.94;;;23.13;28.47
55990;BME280;41875;55.806;38.082;2023-06-10T03:08:30;99941.22;;;21.99;30.58
55990;BME280;41875;55.806;38.082;2023-06-10T03:11:04;99938.22;;;21.89;30.38
55990;BME280;41875;55.806;38.082;2023-06-10T03:13:35;99941.75;;;21.64;30.85
55990;BME280;41875;55.806;38.082;2023-06-10T03:16:07;99934.63;;;20.94;31.66
55990;BME280;41875;55.806;38.082;2023-06-10T03:18:38;99941.75;;;21.64;30.83
55990;BME280;41875;55.806;38.082;2023-06-10T03:21:07;99943.69;;;22.57;29.11
55990;BME280;41875;55.806;38.082;2023-06-10T03:23:37;99949.38;;;23.09;28.33
55990;BME280;41875;55.806;38.082;2023-06-10T03:26:06;99944.53;;;21.51;30.60
55990;BME280;41875;55.806;38.082;2023-06-10T03:28:42;99945.88;;;22.48;29.58
55990;BME280;41875;55.806;38.082;2023-06-10T03:31:11;99940.06;;;23.36;27.77
55990;BME280;41875;55.806;38.082;2023-06-10T03:33:40;99941.53;;;21.40;31.16
55990;BME280;41875;55.806;38.082;2023-06-10T03:36:08;99940.75;;;23.31;28.31
55990;BME280;41875;55.806;38.082;2023-06-10T03:38:37;99934.50;;;22.76;28.92
55990;BME280;41875;55.806;38.082;2023-06-10T03:41:07;99948.00;;;21.32;31.21
55990;BME280;41875;55.806;38.082;2023-06-10T03:43:40;99944.53;;;20.02;33.28
55990;BME280;41875;55.806;38.082;2023-06-10T03:46:10;99958.09;;;20.21;33.54
55990;BME280;41875;55.806;38.082;2023-06-10T03:48:41;99946.63;;;19.40;34.30
55990;BME280;41875;55.806;38.082;2023-06-10T03:51:09;99946.88;;;18.69;35.94
55990;BME280;41875;55.806;38.082;2023-06-10T03:53:38;99941.78;;;18.81;36.10
55990;BME280;41875;55.806;38.082;2023-06-10T03:56:07;99938.31;;;17.18;38.97
55990;BME280;41875;55.806;38.082;2023-06-10T03:58:35;99941.78;;;15.17;43.93
55990;BME280;41875;55.806;38.082;2023-06-10T04:01:05;99941.06;;;16.67;41.21
55990;BME280;41875;55.806;38.082;2023-06-10T04:03:36;99960.59;;;16.30;41.15
55990;BME280;41875;55.806;38.082;2023-06-10T04:06:06;99952.84;;;16.06;41.17
55990;BME280;41875;55.806;38.082;2023-06-10T04:08:35;99956.56;;;15.81;41.88
55990;BME280;41875;55.806;38.082;2023-06-10T04:11:03;99959.34;;;15.35;42.76
55990;BME280;41875;55.806;38.082;2023-06-10T04:13:32;99958.81;;;15.54;41.86
55990;BME280;41875;55.806;38.082;2023-06-10T04:16:01;99954.03;;;15.88;42.14
55990;BME280;41875;55.806;38.082;2023-06-10T04:18:30;99956.22;;;16.59;40.31
55990;BME280;41875;55.806;38.082;2023-06-10T04:21:05;99964.75;;;15.80;41.11
55990;BME280;41875;55.806;38.082;2023-06-10T04:23:34;99964.91;;;15.87;40.92
55990;BME280;41875;55.806;38.082;2023-06-10T04:26:04;99969.03;;;16.19;39.98
55990;BME280;41875;55.806;38.082;2023-06-10T04:28:34;99973.78;;;16.84;39.94
55990;BME280;41875;55.806;38.082;2023-06-10T04:31:03;99964.91;;;16.83;38.12
55990;BME280;41875;55.806;38.082;2023-06-10T04:33:35;99976.66;;;15.77;38.71
55990;BME280;41875;55.806;38.082;2023-06-10T04:36:08;99962.72;;;15.67;40.23
55990;BME280;41875;55.806;38.082;2023-06-10T04:38:37;99968.56;;;15.85;40.73
55990;BME280;41875;55.806;38.082;2023-06-10T04:41:05;99985.78;;;15.83;39.95
55990;BME280;41875;55.806;38.082;2023-06-10T04:43:35;99976.84;;;15.52;39.99
55990;BME280;41875;55.806;38.082;2023-06-10T04:46:04;99970.53;;;15.30;40.08
55990;BME280;41875;55.806;38.082;2023-06-10T04:48:35;100007.44;;;15.50;39.58
55990;BME280;41875;55.806;38.082;2023-06-10T04:51:05;99996.75;;;15.27;39.81
55990;BME280;41875;55.806;38.082;2023-06-10T04:53:34;99990.63;;;15.64;39.05
55990;BME280;41875;55.806;38.082;2023-06-10T04:56:03;99983.41;;;15.27;39.74
55990;BME280;41875;55.806;38.082;2023-06-10T04:58:31;100004.09;;;16.09;38.03
55990;BME280;41875;55.806;38.082;2023-06-10T05:01:00;100010.59;;;16.07;38.07
55990;BME280;41875;55.806;38.082;2023-06-10T05:03:29;100012.69;;;15.58;38.80
55990;BME280;41875;55.806;38.082;2023-06-10T05:06:00;100010.91;;;15.50;39.10
55990;BME280;41875;55.806;38.082;2023-06-10T05:08:34;100019.69;;;15.59;38.21
55990;BME280;41875;55.806;38.082;2023-06-10T05:11:03;100009.88;;;15.75;38.08
55990;BME280;41875;55.806;38.082;2023-06-10T05:13:31;99996.75;;;15.27;39.70
55990;BME280;41875;55.806;38.082;2023-06-10T05:16:00;100001.88;;;16.28;38.14
55990;BME280;41875;55.806;38.082;2023-06-10T05:18:32;100009.97;;;15.81;38.42
55990;BME280;41875;55.806;38.082;2023-06-10T05:21:00;100019.16;;;15.87;38.46
55990;BME280;41875;55.806;38.082;2023-06-10T05:23:32;100008.22;;;16.12;37.78
55990;BME280;41875;55.806;38.082;2023-06-10T05:26:00;100011.34;;;16.45;35.97
55990;BME280;41875;55.806;38.082;2023-06-10T05:28:32;100010.91;;;16.12;37.37
55990;BME280;41875;55.806;38.082;2023-06-10T05:31:01;100033.28;;;16.11;37.74
55990;BME280;41875;55.806;38.082;2023-06-10T05:33:30;100010.06;;;16.56;36.75
55990;BME280;41875;55.806;38.082;2023-06-10T05:35:58;100019.28;;;16.54;37.51
55990;BME280;41875;55.806;38.082;2023-06-10T05:38:29;100010.38;;;16.83;37.35
55990;BME280;41875;55.806;38.082;2023-06-10T05:40:59;100007.78;;;17.05;36.63
55990;BME280;41875;55.806;38.082;2023-06-10T05:43:28;100012.94;;;16.40;37.92
55990;BME280;41875;55.806;38.082;2023-06-10T05:45:57;100021.81;;;17.29;36.58
55990;BME280;41875;55.806;38.082;2023-06-10T05:48:25;100022.78;;;16.69;37.55
55990;BME280;41875;55.806;38.082;2023-06-10T05:50:54;100023.91;;;17.33;36.86
55990;BME280;41875;55.806;38.082;2023-06-10T05:53:23;100020.09;;;17.21;37.21
55990;BME280;41875;55.806;38.082;2023-06-10T05:55:54;100017.34;;;16.03;39.22
55990;BME280;41875;55.806;38.082;2023-06-10T05:58:26;100034.75;;;15.75;39.14
55990;BME280;41875;55.806;38.082;2023-06-10T06:00:56;100029.53;;;16.35;38.46
55990;BME280;41875;55.806;38.082;2023-06-10T06:03:25;100040.88;;;16.67;37.23
55990;BME280;41875;55.806;38.082;2023-06-10T06:05:56;100044.88;;;16.93;36.90
55990;BME280;41875;55.806;38.082;2023-06-10T06:08:24;100033.75;;;17.48;35.98
55990;BME280;41875;55.806;38.082;2023-06-10T06:10:53;100015.44;;;17.30;36.69
55990;BME280;41875;55.806;38.082;2023-06-10T06:13:22;100027.25;;;17.14;36.54
55990;BME280;41875;55.806;38.082;2023-06-10T06:15:54;100014.53;;;17.94;35.46
55990;BME280;41875;55.806;38.082;2023-06-10T06:18:23;100020.81;;;17.80;35.97
55990;BME280;41875;55.806;38.082;2023-06-10T06:20:54;100031.91;;;17.48;36.58
55990;BME280;41875;55.806;38.082;2023-06-10T06:23:23;100016.94;;;16.81;37.47
55990;BME280;41875;55.806;38.082;2023-06-10T06:25:51;100022.25;;;16.44;37.59
55990;BME280;41875;55.806;38.082;2023-06-10T06:28:20;100040.66;;;16.84;37.19
55990;BME280;41875;55.806;38.082;2023-06-10T06:30:49;100027.63;;;16.96;37.45
55990;BME280;41875;55.806;38.082;2023-06-10T06:33:19;100019.81;;;17.81;36.42
55990;BME280;41875;55.806;38.082;2023-06-10T06:35:48;100027.03;;;16.64;37.59
55990;BME280;41875;55.806;38.082;2023-06-10T06:38:17;100046.44;;;17.02;36.81
55990;BME280;41875;55.806;38.082;2023-06-10T06:40:46;100035.03;;;17.30;36.35
55990;BME280;41875;55.806;38.082;2023-06-10T06:43:15;100024.78;;;18.41;34.96
55990;BME280;41875;55.806;38.082;2023-06-10T06:46:02;100041.91;;;16.88;35.97
55990;BME280;41875;55.806;38.082;2023-06-10T06:48:32;100047.47;;;16.86;37.10
55990;BME280;41875;55.806;38.082;2023-06-10T06:51:01;100046.09;;;16.90;35.98
55990;BME280;41875;55.806;38.082;2023-06-10T06:53:30;100038.91;;;17.49;34.98
55990;BME280;41875;55.806;38.082;2023-06-10T06:56:01;100055.69;;;16.85;36.06
55990;BME280;41875;55.806;38.082;2023-06-10T06:58:30;100049.59;;;16.01;36.49
55990;BME280;41875;55.806;38.082;2023-06-10T07:01:04;100055.38;;;17.46;34.86
55990;BME280;41875;55.806;38.082;2023-06-10T07:03:36;100045.78;;;17.80;33.75
55990;BME280;41875;55.806;38.082;2023-06-10T07:06:05;100047.41;;;19.22;31.32
55990;BME280;41875;55.806;38.082;2023-06-10T07:08:34;100052.97;;;17.80;33.59
55990;BME280;41875;55.806;38.082;2023-06-10T07:11:02;100066.31;;;17.73;33.84
55990;BME280;41875;55.806;38.082;2023-06-10T07:13:31;100058.88;;;17.90;33.46
55990;BME280;41875;55.806;38.082;2023-06-10T07:16:00;100078.06;;;18.51;32.31
55990;BME280;41875;55.806;38.082;2023-06-10T07:18:29;100052.19;;;18.71;32.95
55990;BME280;41875;55.806;38.082;2023-06-10T07:20:59;100062.66;;;18.31;32.89
55990;BME280;41875;55.806;38.082;2023-06-10T07:23:27;100064.78;;;18.07;33.53
55990;BME280;41875;55.806;38.082;2023-06-10T07:25:56;100087.59;;;16.71;34.67
55990;BME280;41875;55.806;38.082;2023-06-10T07:28:25;100068.44;;;16.68;33.62
55990;BME280;41875;55.806;38.082;2023-06-10T07:30:53;100052.41;;;17.19;32.80
55990;BME280;41875;55.806;38.082;2023-06-10T07:33:22;100056.31;;;17.39;33.16
55990;BME280;41875;55.806;38.082;2023-06-10T07:35:51;100094.66;;;17.39;33.78
55990;BME280;41875;55.806;38.082;2023-06-10T07:38:21;100083.91;;;17.17;32.06
55990;BME280;41875;55.806;38.082;2023-06-10T07:40:49;100078.25;;;17.49;32.19
55990;BME280;41875;55.806;38.082;2023-06-10T07:43:18;100076.38;;;17.28;32.54
55990;BME280;41875;55.806;38.082;2023-06-10T07:45:47;100108.81;;;16.88;32.55
55990;BME280;41875;55.806;38.082;2023-06-10T07:48:15;100087.88;;;16.76;32.46
55990;BME280;41875;55.806;38.082;2023-06-10T07:50:44;100111.88;;;16.40;33.24
55990;BME280;41875;55.806;38.082;2023-06-10T07:53:13;100089.75;;;17.06;32.68
55990;BME280;41875;55.806;38.082;2023-06-10T07:55:43;100083.69;;;17.34;33.02
55990;BME280;41875;55.806;38.082;2023-06-10T07:58:11;100089.22;;;17.54;32.57
55990;BME280;41875;55.806;38.082;2023-06-10T08:00:40;100097.38;;;17.24;31.31
55990;BME280;41875;55.806;38.082;2023-06-10T08:03:08;100109.44;;;17.35;30.53
55990;BME280;41875;55.806;38.082;2023-06-10T08:05:39;100101.34;;;17.50;31.44
55990;BME280;41875;55.806;38.082;2023-06-10T08:08:08;100087.94;;;17.50;31.24
55990;BME280;41875;55.806;38.082;2023-06-10T08:10:37;100079.97;;;17.35;31.96
55990;BME280;41875;55.806;38.082;2023-06-10T08:13:07;100083.84;;;16.66;33.45
55990;BME280;41875;55.806;38.082;2023-06-10T08:15:36;100107.91;;;16.96;33.58
55990;BME280;41875;55.806;38.082;2023-06-10T08:18:05;100105.59;;;17.08;31.86
55990;BME280;41875;55.806;38.082;2023-06-10T08:20:37;100090.41;;;17.30;32.06
55990;BME280;41875;55.806;38.082;2023-06-10T08:23:08;100112.28;;;17.33;32.00
55990;BME280;41875;55.806;38.082;2023-06-10T08:25:37;100091.44;;;18.16;30.66
55990;BME280;41875;55.806;38.082;2023-06-10T08:28:07;100089.94;;;19.05;28.95
55990;BME280;41875;55.806;38.082;2023-06-10T08:30:35;100104.34;;;19.79;28.29
55990;BME280;41875;55.806;38.082;2023-06-10T08:33:04;100112.38;;;18.62;28.99
55990;BME280;41875;55.806;38.082;2023-06-10T08:35:32;100104.19;;;19.06;29.13
55990;BME280;41875;55.806;38.082;2023-06-10T08:38:01;100093.09;;;18.45;29.30
55990;BME280;41875;55.806;38.082;2023-06-10T08:40:29;100103.59;;;19.17;29.09
55990;BME280;41875;55.806;38.082;2023-06-10T08:43:07;100112.28;;;19.19;28.87
55990;BME280;41875;55.806;38.082;2023-06-10T08:45:36;100125.38;;;18.58;29.37
55990;BME280;41875;55.806;38.082;2023-06-10T08:48:06;100134.34;;;17.94;29.50
55990;BME280;41875;55.806;38.082;2023-06-10T08:50:39;100116.19;;;18.39;29.28
55990;BME280;41875;55.806;38.082;2023-06-10T08:53:12;100115.25;;;18.25;28.84
55990;BME280;41875;55.806;38.082;2023-06-10T08:55:42;100101.31;;;19.14;27.82
55990;BME280;41875;55.806;38.082;2023-06-10T08:58:14;100102.97;;;20.10;26.86
55990;BME280;41875;55.806;38.082;2023-06-10T09:00:43;100107.03;;;19.66;27.69
55990;BME280;41875;55.806;38.082;2023-06-10T09:03:12;100126.41;;;18.57;28.67
55990;BME280;41875;55.806;38.082;2023-06-10T09:05:41;100134.34;;;17.72;29.89
55990;BME280;41875;55.806;38.082;2023-06-10T09:08:10;100128.03;;;17.06;30.78
55990;BME280;41875;55.806;38.082;2023-06-10T09:10:39;100133.78;;;17.98;30.44
55990;BME280;41875;55.806;38.082;2023-06-10T09:13:08;100121.44;;;17.61;30.74
55990;BME280;41875;55.806;38.082;2023-06-10T09:15:38;100123.75;;;18.29;28.82
55990;BME280;41875;55.806;38.082;2023-06-10T09:18:08;100151.13;;;18.24;29.20
55990;BME280;41875;55.806;38.082;2023-06-10T09:20:38;100133.84;;;18.27;28.40
55990;BME280;41875;55.806;38.082;2023-06-10T09:23:07;100127.63;;;18.90;28.52
55990;BME280;41875;55.806;38.082;2023-06-10T09:25:36;100121.78;;;19.90;26.90
55990;BME280;41875;55.806;38.082;2023-06-10T09:28:13;100128.06;;;17.87;29.89
55990;BME280;41875;55.806;38.082;2023-06-10T09:30:44;100145.09;;;17.20;29.72
55990;BME280;41875;55.806;38.082;2023-06-10T09:33:14;100134.06;;;17.45;29.43
55990;BME280;41875;55.806;38.082;2023-06-10T09:35:47;100127.25;;;18.08;28.64
55990;BME280;41875;55.806;38.082;2023-06-10T09:38:19;100109.47;;;17.78;29.07
55990;BME280;41875;55.806;38.082;2023-06-10T09:40:50;100135.84;;;18.82;28.08
55990;BME280;41875;55.806;38.082;2023-06-10T09:43:19;100118.63;;;18.98;27.43
55990;BME280;41875;55.806;38.082;2023-06-10T09:45:49;100107.41;;;19.43;28.21
55990;BME280;41875;55.806;38.082;2023-06-10T09:48:21;100113.25;;;18.34;28.35
55990;BME280;41875;55.806;38.082;2023-06-10T09:50:51;100120.00;;;17.58;29.50
55990;BME280;41875;55.806;38.082;2023-06-10T09:53:20;100126.69;;;18.41;29.06
55990;BME280;41875;55.806;38.082;2023-06-10T09:55:49;100124.13;;;18.26;28.63
55990;BME280;41875;55.806;38.082;2023-06-10T09:58:33;100135.13;;;18.66;28.21
55990;BME280;41875;55.806;38.082;2023-06-10T10:01:06;100133.31;;;17.95;28.01
55990;BME280;41875;55.806;38.082;2023-06-10T10:03:43;100122.66;;;18.52;28.48
55990;BME280;41875;55.806;38.082;2023-06-10T10:06:12;100116.34;;;19.01;26.61
55990;BME280;41875;55.806;38.082;2023-06-10T10:08:41;100117.13;;;18.95;26.10
55990;BME280;41875;55.806;38.082;2023-06-10T10:11:10;100121.31;;;18.98;26.94
55990;BME280;41875;55.806;38.082;2023-06-10T10:13:39;100133.84;;;18.62;27.21
55990;BME280;41875;55.806;38.082;2023-06-10T10:16:12;100145.91;;;18.16;27.33
55990;BME280;41875;55.806;38.082;2023-06-10T10:18:46;100141.50;;;17.28;29.07
55990;BME280;41875;55.806;38.082;2023-06-10T10:21:21;100118.19;;;17.87;27.88
55990;BME280;41875;55.806;38.082;2023-06-10T10:23:53;100141.88;;;18.05;27.97
55990;BME280;41875;55.806;38.082;2023-06-10T10:26:26;100138.41;;;17.90;27.38
55990;BME280;41875;55.806;38.082;2023-06-10T10:29:05;100126.31;;;17.94;27.93
55990;BME280;41875;55.806;38.082;2023-06-10T10:31:37;100120.78;;;19.23;26.29
55990;BME280;41875;55.806;38.082;2023-06-10T10:34:09;100130.31;;;19.32;26.77
55990;BME280;41875;55.806;38.082;2023-06-10T10:36:40;100134.22;;;18.52;26.15
55990;BME280;41875;55.806;38.082;2023-06-10T10:39:10;100153.63;;;18.26;26.86
55990;BME280;41875;55.806;38.082;2023-06-10T10:41:40;100133.59;;;18.92;25.89
55990;BME280;41875;55.806;38.082;2023-06-10T10:44:10;100114.75;;;20.16;25.32
55990;BME280;41875;55.806;38.082;2023-06-10T10:46:44;100127.56;;;19.94;25.28
55990;BME280;41875;55.806;38.082;2023-06-10T10:49:14;100127.47;;;18.98;27.14
55990;BME280;41875;55.806;38.082;2023-06-10T10:51:56;100139.66;;;19.49;25.94
55990;BME280;41875;55.806;38.082;2023-06-10T10:54:29;100136.09;;;18.87;26.98
55990;BME280;41875;55.806;38.082;2023-06-10T10:57:15;100137.22;;;19.61;26.72
55990;BME280;41875;55.806;38.082;2023-06-10T10:59:55;100132.66;;;19.07;26.84
55990;BME280;41875;55.806;38.082;2023-06-10T11:02:37;100156.28;;;18.83;26.85
55990;BME280;41875;55.806;38.082;2023-06-10T11:05:13;100139.94;;;18.78;24.90
55990;BME280;41875;55.806;38.082;2023-06-10T11:07:52;100139.59;;;18.52;26.27
55990;BME280;41875;55.806;38.082;2023-06-10T11:10:30;100146.16;;;18.21;26.93
55990;BME280;41875;55.806;38.082;2023-06-10T11:12:59;100139.97;;;19.19;26.13
55990;BME280;41875;55.806;38.082;2023-06-10T11:15:29;100126.88;;;20.73;24.65
55990;BME280;41875;55.806;38.082;2023-06-10T11:18:23;100132.88;;;21.40;24.57
55990;BME280;41875;55.806;38.082;2023-06-10T11:20:57;100126.06;;;20.72;24.92
55990;BME280;41875;55.806;38.082;2023-06-10T11:23:34;100160.16;;;19.09;26.64
55990;BME280;41875;55.806;38.082;2023-06-10T11:26:20;100163.28;;;17.98;27.31
55990;BME280;41875;55.806;38.082;2023-06-10T11:29:17;100161.34;;;18.14;26.98
55990;BME280;41875;55.806;38.082;2023-06-10T11:31:52;100163.16;;;17.70;27.55
55990;BME280;41875;55.806;38.082;2023-06-10T11:34:24;100135.34;;;17.71;27.72
55990;BME280;41875;55.806;38.082;2023-06-10T11:36:54;100134.09;;;18.67;26.31
55990;BME280;41875;55.806;38.082;2023-06-10T11:39:24;100125.81;;;18.62;26.21
55990;BME280;41875;55.806;38.082;2023-06-10T11:41:54;100129.78;;;18.73;26.34
55990;BME280;41875;55.806;38.082;2023-06-10T11:44:28;100130.94;;;19.34;26.12
55990;BME280;41875;55.806;38.082;2023-06-10T11:46:57;100142.63;;;18.42;26.94
55990;BME280;41875;55.806;38.082;2023-06-10T11:49:27;100139.38;;;18.25;27.66
55990;BME280;41875;55.806;38.082;2023-06-10T11:51:56;100125.88;;;18.76;27.31
55990;BME280;41875;55.806;38.082;2023-06-10T11:54:24;100122.09;;;18.63;26.21
55990;BME280;41875;55.806;38.082;2023-06-10T11:56:57;100139.94;;;19.13;25.89
55990;BME280;41875;55.806;38.082;2023-06-10T11:59:27;100128.88;;;19.36;25.64
55990;BME280;41875;55.806;38.082;2023-06-10T12:01:56;100123.16;;;19.73;25.01
55990;BME280;41875;55.806;38.082;2023-06-10T12:04:26;100126.81;;;19.31;25.95
55990;BME280;41875;55.806;38.082;2023-06-10T12:06:57;100144.72;;;19.93;24.72
55990;BME280;41875;55.806;38.082;2023-06-10T12:09:27;100133.59;;;19.27;26.10
55990;BME280;41875;55.806;38.082;2023-06-10T12:11:58;100140.28;;;18.96;26.33
55990;BME280;41875;55.806;38.082;2023-06-10T12:14:50;100152.41;;;18.28;28.22
55990;BME280;41875;55.806;38.082;2023-06-10T12:17:19;100153.69;;;18.33;28.19
55990;BME280;41875;55.806;38.082;2023-06-10T12:19:51;100138.63;;;17.88;28.90
55990;BME280;41875;55.806;38.082;2023-06-10T12:22:20;100167.66;;;17.85;28.71
55990;BME280;41875;55.806;38.082;2023-06-10T12:24:58;100140.75;;;18.15;28.84
55990;BME280;41875;55.806;38.082;2023-06-10T12:27:34;100134.66;;;18.27;27.93
55990;BME280;41875;55.806;38.082;2023-06-10T12:30:04;100154.03;;;18.86;25.79
55990;BME280;41875;55.806;38.082;2023-06-10T12:32:37;100127.41;;;19.27;25.69
55990;BME280;41875;55.806;38.082;2023-06-10T12:35:11;100133.94;;;19.79;24.96
55990;BME280;41875;55.806;38.082;2023-06-10T12:37:41;100124.25;;;19.99;24.59
55990;BME280;41875;55.806;38.082;2023-06-10T12:40:11;100134.19;;;19.98;25.97
55990;BME280;41875;55.806;38.082;2023-06-10T12:42:39;100162.75;;;20.06;26.06
55990;BME280;41875;55.806;38.082;2023-06-10T12:45:09;100116.41;;;19.15;27.13
55990;BME280;41875;55.806;38.082;2023-06-10T12:47:39;100155.38;;;17.75;28.99
55990;BME280;41875;55.806;38.082;2023-06-10T12:50:10;100152.91;;;17.74;29.17
55990;BME280;41875;55.806;38.082;2023-06-10T12:52:40;100135.47;;;17.63;28.79
55990;BME280;41875;55.806;38.082;2023-06-10T12:55:11;100151.56;;;17.63;29.02
55990;BME280;41875;55.806;38.082;2023-06-10T12:57:48;100133.44;;;17.87;29.22
55990;BME280;41875;55.806;38.082;2023-06-10T13:00:18;100161.03;;;17.80;29.36